createdAt,value
2019-02-18T00:00:42.829Z,16.63
2019-02-18T00:05:48.104Z,16.93
2019-02-18T00:10:53.367Z,15.03
2019-02-18T00:15:59.440Z,18.30
2019-02-18T00:21:05.120Z,17.92
2019-02-18T00:26:10.720Z,15.93
2019-02-18T00:31:16.364Z,18.10
2019-02-18T00:36:21.619Z,16.63
2019-02-18T00:41:27.121Z,16.40
2019-02-18T00:46:32.313Z,18.80
2019-02-18T00:51:37.823Z,15.73
2019-02-18T00:56:43.175Z,16.57
2019-02-18T01:01:48.372Z,16.23
2019-02-18T01:06:53.638Z,14.65
2019-02-18T01:11:59.753Z,15.87
2019-02-18T01:17:05.058Z,14.87
2019-02-18T01:22:10.259Z,16.53
2019-02-18T01:27:15.424Z,16.13
2019-02-18T01:32:20.687Z,15.55
2019-02-18T01:37:26.207Z,15.50
2019-02-18T01:42:32.018Z,14.80
2019-02-18T01:47:37.965Z,15.20
2019-02-18T01:52:43.142Z,15.80
2019-02-18T01:57:48.860Z,15.17
2019-02-18T02:02:55.682Z,16.87
2019-02-18T02:08:00.952Z,15.87
2019-02-18T02:13:41.515Z,15.37
2019-02-18T02:18:46.693Z,16.63
2019-02-18T02:23:52.312Z,15.28
2019-02-18T02:28:57.570Z,16.03
2019-02-18T02:34:02.829Z,14.05
2019-02-18T02:39:08.424Z,15.57
2019-02-18T02:44:13.876Z,17.70
2019-02-18T02:49:20.110Z,13.87
2019-02-18T02:54:26.050Z,14.47
2019-02-18T02:59:31.228Z,13.40
2019-02-18T03:04:36.486Z,12.95
2019-02-18T03:09:41.943Z,15.57
2019-02-18T03:14:47.616Z,14.15
2019-02-18T03:19:52.792Z,13.50
2019-02-18T03:25:18.453Z,13.50
2019-02-18T03:30:33.964Z,13.40
2019-02-18T03:35:39.984Z,13.67
2019-02-18T03:40:45.505Z,15.10
2019-02-18T03:45:51.078Z,12.47
2019-02-18T03:50:56.411Z,14.07
2019-02-18T03:56:02.432Z,14.30
2019-02-18T04:01:07.595Z,13.10
2019-02-18T04:06:12.774Z,16.10
2019-02-18T04:11:18.675Z,13.37
2019-02-18T04:16:24.159Z,13.73
2019-02-18T04:21:29.324Z,15.70
2019-02-18T04:26:34.756Z,12.90
2019-02-18T04:31:40.273Z,13.80
2019-02-18T04:36:45.335Z,15.60
2019-02-18T04:41:50.421Z,13.15
2019-02-18T04:46:56.258Z,13.23
2019-02-18T04:52:01.316Z,14.33
2019-02-18T04:57:06.461Z,14.57
2019-02-18T05:02:11.873Z,14.27
2019-02-18T05:07:16.946Z,13.10
2019-02-18T05:12:22.086Z,14.90
2019-02-18T05:17:27.576Z,16.53
2019-02-18T05:22:33.094Z,13.77
2019-02-18T05:27:38.181Z,14.67
2019-02-18T05:32:43.600Z,15.87
2019-02-18T05:37:48.684Z,12.97
2019-02-18T05:42:54.695Z,15.40
2019-02-18T05:48:00.285Z,15.93
2019-02-18T05:53:05.521Z,15.53
2019-02-18T05:58:10.507Z,15.33
2019-02-18T06:03:16.415Z,17.53
2019-02-18T06:08:21.478Z,16.30
2019-02-18T06:13:26.812Z,13.00
2019-02-18T06:18:32.515Z,15.10
2019-02-18T06:23:37.938Z,14.93
2019-02-18T06:28:43.723Z,15.33
2019-02-18T06:33:49.208Z,13.63
2019-02-18T06:38:54.307Z,12.57
2019-02-18T06:44:00.038Z,18.90
2019-02-18T06:49:25.829Z,14.00
2019-02-18T06:54:31.254Z,17.73
2019-02-18T06:59:55.365Z,13.83
2019-02-18T07:05:23.956Z,12.77
2019-02-18T07:10:43.138Z,14.17
2019-02-18T07:15:48.569Z,13.30
2019-02-18T07:20:54.305Z,14.80
2019-02-18T07:25:59.298Z,14.03
2019-02-18T07:31:04.397Z,14.93
2019-02-18T07:36:09.891Z,14.30
2019-02-18T07:41:15.323Z,14.90
2019-02-18T07:46:21.036Z,14.13
2019-02-18T07:51:26.591Z,13.50
2019-02-18T07:56:31.741Z,13.10
2019-02-18T08:01:36.806Z,13.63
2019-02-18T08:06:43.157Z,12.77
2019-02-18T08:11:48.645Z,14.80
2019-02-18T08:16:54.133Z,13.07
2019-02-18T08:21:59.619Z,13.20
2019-02-18T08:27:04.866Z,12.95
2019-02-18T08:32:10.966Z,13.93
2019-02-18T08:37:16.262Z,13.63
2019-02-18T08:42:21.405Z,14.50
2019-02-18T08:47:26.437Z,12.90
2019-02-18T08:52:31.574Z,13.13
2019-02-18T08:57:37.141Z,11.30
2019-02-18T09:02:42.489Z,15.25
2019-02-18T09:07:47.657Z,13.08
2019-02-18T09:12:53.078Z,13.35
2019-02-18T09:17:58.307Z,12.15
2019-02-18T09:23:15.242Z,12.33
2019-02-18T09:28:20.714Z,10.13
2019-02-18T09:33:26.230Z,12.45
2019-02-18T09:38:32.215Z,14.03
2019-02-18T09:43:37.654Z,17.00
2019-02-18T09:48:43.800Z,19.82
2019-02-18T09:53:49.327Z,19.27
2019-02-18T09:58:54.558Z,22.62
2019-02-18T10:04:00.167Z,14.68
2019-02-18T10:09:07.141Z,12.40
2019-02-18T10:14:12.818Z,13.55
2019-02-18T10:19:18.041Z,11.08
2019-02-18T10:24:23.105Z,9.93
2019-02-18T10:29:28.576Z,11.08
2019-02-18T10:34:33.738Z,10.85
2019-02-18T10:39:38.901Z,12.15
2019-02-18T10:44:44.388Z,10.80
2019-02-18T10:49:49.683Z,11.57
2019-02-18T10:54:54.935Z,11.50
2019-02-18T11:00:00.407Z,11.65
2019-02-18T11:05:07.591Z,9.90
2019-02-18T11:10:13.981Z,9.90
2019-02-18T11:15:19.337Z,9.75
2019-02-18T11:20:24.676Z,11.35
2019-02-18T11:25:30.189Z,9.93
2019-02-18T11:30:35.808Z,10.93
2019-02-18T11:35:41.777Z,10.32
2019-02-18T11:40:47.052Z,9.90
2019-02-18T11:45:52.212Z,10.58
2019-02-18T11:50:57.374Z,10.38
2019-02-18T11:56:02.591Z,9.73
2019-02-18T12:01:08.824Z,10.58
2019-02-18T12:06:14.067Z,10.72
2019-02-18T12:11:19.442Z,11.63
2019-02-18T12:16:25.331Z,9.73
2019-02-18T12:21:30.767Z,11.78
2019-02-18T12:26:35.920Z,9.43
2019-02-18T12:31:40.994Z,6.47
2019-02-18T12:36:46.522Z,8.88
2019-02-18T12:41:53.106Z,6.85
2019-02-18T12:46:58.246Z,8.53
2019-02-18T12:52:04.130Z,7.85
2019-02-18T12:57:09.833Z,7.10
2019-02-18T13:02:14.988Z,7.80
2019-02-18T13:07:21.040Z,8.43
2019-02-18T13:12:27.481Z,8.75
2019-02-18T13:17:32.548Z,8.90
2019-02-18T13:22:38.416Z,8.38
2019-02-18T13:27:43.655Z,8.80
2019-02-18T13:32:49.263Z,7.90
2019-02-18T13:37:54.674Z,7.95
2019-02-18T13:43:00.138Z,6.60
2019-02-18T13:48:05.363Z,8.18
2019-02-18T13:53:10.600Z,8.38
2019-02-18T13:58:15.828Z,7.80
2019-02-18T14:03:20.970Z,8.55
2019-02-18T14:08:26.203Z,7.53
2019-02-18T14:13:31.707Z,9.85
2019-02-18T14:18:37.220Z,8.93
2019-02-18T14:23:43.439Z,8.60
2019-02-18T14:28:48.582Z,7.30
2019-02-18T14:33:55.665Z,8.08
2019-02-18T14:39:00.847Z,7.40
2019-02-18T14:44:08.101Z,9.33
2019-02-18T14:49:13.733Z,7.67
2019-02-18T14:54:19.458Z,7.62
2019-02-18T14:59:24.686Z,6.62
2019-02-18T15:04:29.820Z,6.83
2019-02-18T15:09:35.061Z,5.95
2019-02-18T15:14:40.215Z,6.45
2019-02-18T15:19:45.366Z,7.05
2019-02-18T15:24:50.521Z,5.58
2019-02-18T15:29:56.129Z,5.85
2019-02-18T15:35:03.105Z,6.20
2019-02-18T15:40:10.032Z,6.30
2019-02-18T15:45:15.877Z,5.37
2019-02-18T15:50:21.423Z,6.90
2019-02-18T15:55:28.612Z,6.55
2019-02-18T16:00:34.504Z,5.28
2019-02-18T16:05:40.691Z,5.10
2019-02-18T16:10:45.843Z,5.37
2019-02-18T16:15:51.327Z,6.20
2019-02-18T16:20:56.696Z,4.95
2019-02-18T16:26:02.805Z,6.75
2019-02-18T16:31:08.497Z,5.53
2019-02-18T16:36:13.745Z,5.25
2019-02-18T16:41:18.977Z,5.22
2019-02-18T16:46:24.243Z,5.72
2019-02-18T16:51:30.231Z,7.03
2019-02-18T16:56:35.447Z,7.40
2019-02-18T17:01:41.015Z,6.92
2019-02-18T17:06:46.591Z,7.37
2019-02-18T17:11:51.727Z,8.30
2019-02-18T17:16:56.965Z,7.08
2019-02-18T17:22:02.512Z,6.78
2019-02-18T17:27:08.036Z,7.10
2019-02-18T17:32:14.602Z,8.28
2019-02-18T17:37:20.389Z,9.65
2019-02-18T17:42:26.001Z,8.15
2019-02-18T17:47:31.204Z,7.65
2019-02-18T17:52:36.770Z,8.10
2019-02-18T17:57:41.904Z,8.78
2019-02-18T18:02:47.086Z,8.90
2019-02-18T18:07:52.336Z,14.07
2019-02-18T18:12:58.744Z,8.93
2019-02-18T18:18:04.035Z,8.60
2019-02-18T18:23:09.277Z,8.48
2019-02-18T18:28:14.562Z,9.13
2019-02-18T18:33:19.702Z,8.88
2019-02-18T18:38:24.952Z,8.90
2019-02-18T18:43:33.848Z,10.50
2019-02-18T18:48:37.209Z,10.10
2019-02-18T18:53:42.821Z,8.83
2019-02-18T18:58:48.162Z,10.55
2019-02-18T19:03:54.543Z,11.48
2019-02-18T19:09:01.462Z,11.05
2019-02-18T19:14:07.704Z,11.57
2019-02-18T19:19:12.960Z,13.53
2019-02-18T19:24:18.123Z,20.00
2019-02-18T19:29:24.181Z,12.60
2019-02-18T19:34:29.608Z,10.90
2019-02-18T19:39:34.781Z,13.32
2019-02-18T19:44:39.994Z,11.45
2019-02-18T19:49:46.001Z,10.58
2019-02-18T19:54:51.639Z,10.93
2019-02-18T19:59:56.858Z,12.20
2019-02-18T20:05:02.085Z,9.95
2019-02-18T20:10:08.143Z,11.78
2019-02-18T20:15:13.486Z,12.82
2019-02-18T20:20:18.958Z,12.23
2019-02-18T20:25:24.417Z,11.30
2019-02-18T20:30:29.950Z,12.78
2019-02-18T20:35:35.754Z,11.43
2019-02-18T20:40:41.505Z,11.12
2019-02-18T20:45:47.394Z,11.33
2019-02-18T20:50:52.685Z,11.85
2019-02-18T20:55:58.592Z,15.83
2019-02-18T21:01:03.907Z,12.58
2019-02-18T21:06:09.451Z,11.83
2019-02-18T21:11:17.506Z,12.05
2019-02-18T21:16:22.828Z,12.70
2019-02-18T21:21:28.185Z,10.75
2019-02-18T21:26:36.653Z,14.38
2019-02-18T21:31:41.826Z,12.58
2019-02-18T21:36:48.356Z,12.58
2019-02-18T21:41:54.388Z,13.60
2019-02-18T21:46:59.680Z,12.58
2019-02-18T21:52:06.273Z,11.78
2019-02-18T21:57:12.046Z,13.45
2019-02-18T22:02:19.141Z,12.37
2019-02-18T22:07:24.563Z,14.55
2019-02-18T22:12:30.647Z,15.55
2019-02-18T22:17:35.805Z,13.03
2019-02-18T22:22:41.608Z,14.15
2019-02-18T22:27:46.833Z,15.20
2019-02-18T22:32:52.055Z,14.70
2019-02-18T22:37:57.328Z,14.47
2019-02-18T22:43:02.556Z,15.93
2019-02-18T22:48:08.123Z,15.40
2019-02-18T22:53:14.127Z,16.03
2019-02-18T22:58:19.486Z,15.10
2019-02-18T23:03:24.757Z,15.93
2019-02-18T23:08:30.358Z,16.00
2019-02-18T23:13:35.958Z,16.37
2019-02-18T23:18:41.432Z,14.90
2019-02-18T23:23:46.980Z,13.93
2019-02-18T23:28:52.401Z,15.93
2019-02-18T23:33:57.547Z,15.15
2019-02-18T23:39:04.079Z,15.43
2019-02-18T23:44:10.402Z,15.83
2019-02-18T23:49:15.554Z,16.12
2019-02-18T23:54:22.220Z,15.05
2019-02-18T23:59:27.509Z,17.07
